Huvudsida
METAR-TAF:

METAR-TAF

Flygplatser :

Sogndals, Norge

Sogndals flygplats. Haukåsen

latitud: 61-09N, longitud: 007-08E, höjd: 49 m

Aktuellt väderrapport

Denna rapport gjordes för 35 minuter sedan, klockan 17:50 UTC
Vind 8 kt från nord/nordost
Temperatur 6°C
Fuktighet 81%
Tryck 1008 hPa
Sikt 10 km eller mer
Få moln på en höjd av 1000 ft
Spridda moln på en höjd av 2500 ft
Brutna moln på en höjd av 3500 ft
lätt regn

METAR: ENSG 221750Z 03008KT 9999 -RA FEW010 SCT025 BKN035 06/03 Q1008 RMK WIND 3806FT 09015KT

Tid: 20:25 (18:25 UTC)


TAF: saknas

Aktuella väderrapporter och prognoser från 4000 flygplatser (METAR- och TAF-rapporter).

De tillgängliga stationerna syns som gula och röda prickar på kartan.

För musen över prickarna för att se namnen på stationerna.

Klicka sedan för att få väderrapporter och prognoser.

För att ändra kartan: Klicka på de gröna knapparna med ett svart kors på för att zooma in; den gröna knappen med ett streck på för att zooma ut; eller på de gröna pilarna för angränsande kartor.


METAR-TAF: